sensor_id;sensor_type;location;lat;lon;timestamp;P1;durP1;ratioP1;P2;durP2;ratioP2
55467;SDS011;41332;42.702;23.200;2023-05-10T00:02:24;5.82;;;4.45;;
55467;SDS011;41332;42.702;23.200;2023-05-10T00:04:49;7.20;;;4.65;;
55467;SDS011;41332;42.702;23.200;2023-05-10T00:07:15;9.05;;;4.63;;
55467;SDS011;41332;42.702;23.200;2023-05-10T00:09:42;6.63;;;4.93;;
55467;SDS011;41332;42.702;23.200;2023-05-10T00:12:08;7.68;;;5.35;;
55467;SDS011;41332;42.702;23.200;2023-05-10T00:14:33;10.02;;;6.15;;
55467;SDS011;41332;42.702;23.200;2023-05-10T00:16:58;5.75;;;4.68;;
55467;SDS011;41332;42.702;23.200;2023-05-10T00:19:24;9.30;;;6.72;;
55467;SDS011;41332;42.702;23.200;2023-05-10T00:21:52;6.03;;;5.50;;
55467;SDS011;41332;42.702;23.200;2023-05-10T00:24:18;7.15;;;5.93;;
55467;SDS011;41332;42.702;23.200;2023-05-10T00:26:43;6.05;;;5.55;;
55467;SDS011;41332;42.702;23.200;2023-05-10T00:29:08;6.90;;;5.55;;
55467;SDS011;41332;42.702;23.200;2023-05-10T00:31:34;7.82;;;6.05;;
55467;SDS011;41332;42.702;23.200;2023-05-10T00:33:59;5.93;;;5.20;;
55467;SDS011;41332;42.702;23.200;2023-05-10T00:36:25;6.53;;;5.57;;
55467;SDS011;41332;42.702;23.200;2023-05-10T00:38:51;6.88;;;3.92;;
55467;SDS011;41332;42.702;23.200;2023-05-10T00:41:16;4.65;;;4.00;;
55467;SDS011;41332;42.702;23.200;2023-05-10T00:43:41;6.88;;;6.18;;
55467;SDS011;41332;42.702;23.200;2023-05-10T00:46:07;9.18;;;6.30;;
55467;SDS011;41332;42.702;23.200;2023-05-10T00:48:32;8.98;;;5.82;;
55467;SDS011;41332;42.702;23.200;2023-05-10T00:50:58;11.05;;;7.47;;
55467;SDS011;41332;42.702;23.200;2023-05-10T00:53:24;8.13;;;5.80;;
55467;SDS011;41332;42.702;23.200;2023-05-10T00:55:50;6.68;;;5.35;;
55467;SDS011;41332;42.702;23.200;2023-05-10T00:58:16;9.02;;;6.28;;
55467;SDS011;41332;42.702;23.200;2023-05-10T01:00:41;8.38;;;6.07;;
55467;SDS011;41332;42.702;23.200;2023-05-10T01:03:09;11.17;;;6.63;;
55467;SDS011;41332;42.702;23.200;2023-05-10T01:05:36;8.38;;;6.40;;
55467;SDS011;41332;42.702;23.200;2023-05-10T01:08:01;6.30;;;5.70;;
55467;SDS011;41332;42.702;23.200;2023-05-10T01:10:27;11.43;;;6.25;;
55467;SDS011;41332;42.702;23.200;2023-05-10T01:12:56;7.97;;;6.50;;
55467;SDS011;41332;42.702;23.200;2023-05-10T01:15:24;8.93;;;6.43;;
55467;SDS011;41332;42.702;23.200;2023-05-10T01:17:49;7.68;;;5.80;;
55467;SDS011;41332;42.702;23.200;2023-05-10T01:20:16;7.25;;;6.43;;
55467;SDS011;41332;42.702;23.200;2023-05-10T01:30:45;8.40;;;6.85;;
55467;SDS011;41332;42.702;23.200;2023-05-10T01:36:20;6.30;;;5.05;;
55467;SDS011;41332;42.702;23.200;2023-05-10T01:42:01;8.90;;;6.78;;
55467;SDS011;41332;42.702;23.200;2023-05-10T01:44:34;8.68;;;6.78;;
55467;SDS011;41332;42.702;23.200;2023-05-10T01:49:54;7.07;;;5.65;;
55467;SDS011;41332;42.702;23.200;2023-05-10T01:52:30;9.48;;;6.03;;
55467;SDS011;41332;42.702;23.200;2023-05-10T01:55:05;7.72;;;6.93;;
55467;SDS011;41332;42.702;23.200;2023-05-10T01:57:33;8.45;;;6.20;;
55467;SDS011;41332;42.702;23.200;2023-05-10T02:00:03;8.60;;;6.40;;
55467;SDS011;41332;42.702;23.200;2023-05-10T02:02:30;5.90;;;5.30;;
55467;SDS011;41332;42.702;23.200;2023-05-10T02:05:00;5.28;;;4.80;;
55467;SDS011;41332;42.702;23.200;2023-05-10T02:07:26;6.78;;;5.05;;
55467;SDS011;41332;42.702;23.200;2023-05-10T02:09:53;5.78;;;5.00;;
55467;SDS011;41332;42.702;23.200;2023-05-10T02:12:20;6.30;;;4.50;;
55467;SDS011;41332;42.702;23.200;2023-05-10T02:14:49;6.78;;;5.00;;
55467;SDS011;41332;42.702;23.200;2023-05-10T02:17:16;6.95;;;4.97;;
55467;SDS011;41332;42.702;23.200;2023-05-10T02:19:43;5.35;;;4.85;;
55467;SDS011;41332;42.702;23.200;2023-05-10T02:22:10;4.40;;;4.00;;
55467;SDS011;41332;42.702;23.200;2023-05-10T02:24:36;4.75;;;4.35;;
55467;SDS011;41332;42.702;23.200;2023-05-10T02:27:03;4.93;;;4.53;;
55467;SDS011;41332;42.702;23.200;2023-05-10T02:29:29;5.07;;;4.15;;
55467;SDS011;41332;42.702;23.200;2023-05-10T02:31:56;2.85;;;2.58;;
55467;SDS011;41332;42.702;23.200;2023-05-10T02:34:24;9.18;;;3.85;;
55467;SDS011;41332;42.702;23.200;2023-05-10T02:36:51;4.40;;;3.90;;
55467;SDS011;41332;42.702;23.200;2023-05-10T02:39:21;5.32;;;4.82;;
55467;SDS011;41332;42.702;23.200;2023-05-10T02:41:48;4.15;;;3.75;;
55467;SDS011;41332;42.702;23.200;2023-05-10T02:44:16;4.25;;;3.85;;
55467;SDS011;41332;42.702;23.200;2023-05-10T02:46:44;7.75;;;3.38;;
55467;SDS011;41332;42.702;23.200;2023-05-10T02:49:10;3.53;;;3.22;;
55467;SDS011;41332;42.702;23.200;2023-05-10T02:51:37;5.22;;;4.05;;
55467;SDS011;41332;42.702;23.200;2023-05-10T02:54:08;4.35;;;4.00;;
55467;SDS011;41332;42.702;23.200;2023-05-10T02:56:43;6.47;;;4.70;;
55467;SDS011;41332;42.702;23.200;2023-05-10T02:59:15;8.82;;;4.22;;
55467;SDS011;41332;42.702;23.200;2023-05-10T03:01:41;2.92;;;1.92;;
55467;SDS011;41332;42.702;23.200;2023-05-10T03:04:06;6.50;;;4.57;;
55467;SDS011;41332;42.702;23.200;2023-05-10T03:06:32;4.35;;;3.95;;
55467;SDS011;41332;42.702;23.200;2023-05-10T03:08:57;5.18;;;4.40;;
55467;SDS011;41332;42.702;23.200;2023-05-10T03:17:04;5.15;;;4.03;;
55467;SDS011;41332;42.702;23.200;2023-05-10T03:19:39;5.68;;;4.70;;
55467;SDS011;41332;42.702;23.200;2023-05-10T03:22:10;7.13;;;5.03;;
55467;SDS011;41332;42.702;23.200;2023-05-10T03:24:39;5.35;;;4.28;;
55467;SDS011;41332;42.702;23.200;2023-05-10T03:27:06;6.25;;;5.43;;
55467;SDS011;41332;42.702;23.200;2023-05-10T03:29:33;5.00;;;4.57;;
55467;SDS011;41332;42.702;23.200;2023-05-10T03:32:02;4.97;;;4.47;;
55467;SDS011;41332;42.702;23.200;2023-05-10T03:34:28;3.33;;;3.05;;
55467;SDS011;41332;42.702;23.200;2023-05-10T03:36:56;4.78;;;4.13;;
55467;SDS011;41332;42.702;23.200;2023-05-10T03:39:21;6.15;;;4.63;;
55467;SDS011;41332;42.702;23.200;2023-05-10T03:41:47;4.38;;;3.95;;
55467;SDS011;41332;42.702;23.200;2023-05-10T03:44:12;7.10;;;4.88;;
55467;SDS011;41332;42.702;23.200;2023-05-10T03:46:37;11.55;;;4.22;;
55467;SDS011;41332;42.702;23.200;2023-05-10T03:49:03;6.35;;;2.97;;
55467;SDS011;41332;42.702;23.200;2023-05-10T03:51:28;8.18;;;5.07;;
55467;SDS011;41332;42.702;23.200;2023-05-10T03:53:54;5.43;;;3.92;;
55467;SDS011;41332;42.702;23.200;2023-05-10T03:56:20;4.35;;;3.40;;
55467;SDS011;41332;42.702;23.200;2023-05-10T03:58:46;6.63;;;4.03;;
55467;SDS011;41332;42.702;23.200;2023-05-10T04:01:11;4.55;;;3.95;;
55467;SDS011;41332;42.702;23.200;2023-05-10T04:03:37;4.20;;;3.80;;
55467;SDS011;41332;42.702;23.200;2023-05-10T04:06:03;6.60;;;4.65;;
55467;SDS011;41332;42.702;23.200;2023-05-10T04:08:28;5.97;;;4.68;;
55467;SDS011;41332;42.702;23.200;2023-05-10T04:10:54;7.25;;;3.25;;
55467;SDS011;41332;42.702;23.200;2023-05-10T04:13:20;4.97;;;3.97;;
55467;SDS011;41332;42.702;23.200;2023-05-10T04:15:45;4.47;;;4.10;;
55467;SDS011;41332;42.702;23.200;2023-05-10T04:18:10;4.75;;;4.25;;
55467;SDS011;41332;42.702;23.200;2023-05-10T04:20:36;8.88;;;4.50;;
55467;SDS011;41332;42.702;23.200;2023-05-10T04:23:01;5.10;;;4.18;;
55467;SDS011;41332;42.702;23.200;2023-05-10T04:25:27;6.18;;;4.32;;
55467;SDS011;41332;42.702;23.200;2023-05-10T04:27:52;5.30;;;4.70;;
55467;SDS011;41332;42.702;23.200;2023-05-10T04:30:18;6.75;;;4.22;;
55467;SDS011;41332;42.702;23.200;2023-05-10T04:32:43;4.63;;;3.95;;
55467;SDS011;41332;42.702;23.200;2023-05-10T04:35:08;7.82;;;4.55;;
55467;SDS011;41332;42.702;23.200;2023-05-10T04:37:35;8.07;;;4.82;;
55467;SDS011;41332;42.702;23.200;2023-05-10T04:40:01;5.10;;;4.55;;
55467;SDS011;41332;42.702;23.200;2023-05-10T04:42:28;12.10;;;5.53;;
55467;SDS011;41332;42.702;23.200;2023-05-10T04:44:53;7.18;;;4.28;;
55467;SDS011;41332;42.702;23.200;2023-05-10T04:47:19;5.50;;;4.90;;
55467;SDS011;41332;42.702;23.200;2023-05-10T04:49:45;5.82;;;5.22;;
55467;SDS011;41332;42.702;23.200;2023-05-10T04:52:10;5.75;;;4.88;;
55467;SDS011;41332;42.702;23.200;2023-05-10T04:54:36;9.00;;;5.40;;
55467;SDS011;41332;42.702;23.200;2023-05-10T04:57:02;6.10;;;4.88;;
55467;SDS011;41332;42.702;23.200;2023-05-10T04:59:27;6.28;;;5.25;;
55467;SDS011;41332;42.702;23.200;2023-05-10T05:01:52;7.15;;;5.00;;
55467;SDS011;41332;42.702;23.200;2023-05-10T05:04:18;6.13;;;4.93;;
55467;SDS011;41332;42.702;23.200;2023-05-10T05:06:43;6.90;;;5.25;;
55467;SDS011;41332;42.702;23.200;2023-05-10T05:09:09;5.80;;;4.60;;
55467;SDS011;41332;42.702;23.200;2023-05-10T05:11:35;9.43;;;5.82;;
55467;SDS011;41332;42.702;23.200;2023-05-10T05:14:00;8.10;;;4.85;;
55467;SDS011;41332;42.702;23.200;2023-05-10T05:16:26;7.30;;;4.55;;
55467;SDS011;41332;42.702;23.200;2023-05-10T05:18:51;5.85;;;5.25;;
55467;SDS011;41332;42.702;23.200;2023-05-10T05:21:17;5.45;;;4.95;;
55467;SDS011;41332;42.702;23.200;2023-05-10T05:23:43;5.20;;;4.75;;
55467;SDS011;41332;42.702;23.200;2023-05-10T05:26:09;7.45;;;5.63;;
55467;SDS011;41332;42.702;23.200;2023-05-10T05:28:34;6.90;;;4.85;;
55467;SDS011;41332;42.702;23.200;2023-05-10T05:31:02;13.98;;;6.95;;
55467;SDS011;41332;42.702;23.200;2023-05-10T05:33:31;5.53;;;4.97;;
55467;SDS011;41332;42.702;23.200;2023-05-10T05:35:56;6.22;;;5.28;;
55467;SDS011;41332;42.702;23.200;2023-05-10T05:38:22;11.02;;;6.20;;
55467;SDS011;41332;42.702;23.200;2023-05-10T05:40:47;7.05;;;5.80;;
55467;SDS011;41332;42.702;23.200;2023-05-10T05:43:12;10.63;;;7.45;;
55467;SDS011;41332;42.702;23.200;2023-05-10T05:45:38;6.97;;;6.25;;
55467;SDS011;41332;42.702;23.200;2023-05-10T05:48:03;6.22;;;4.88;;
55467;SDS011;41332;42.702;23.200;2023-05-10T05:50:29;5.72;;;4.78;;
55467;SDS011;41332;42.702;23.200;2023-05-10T05:52:54;6.70;;;5.45;;
55467;SDS011;41332;42.702;23.200;2023-05-10T05:55:20;8.98;;;7.18;;
55467;SDS011;41332;42.702;23.200;2023-05-10T05:57:46;12.52;;;5.88;;
55467;SDS011;41332;42.702;23.200;2023-05-10T06:00:11;5.60;;;4.15;;
55467;SDS011;41332;42.702;23.200;2023-05-10T06:02:38;9.13;;;7.15;;
55467;SDS011;41332;42.702;23.200;2023-05-10T06:05:03;9.20;;;6.35;;
55467;SDS011;41332;42.702;23.200;2023-05-10T06:07:29;6.90;;;5.68;;
55467;SDS011;41332;42.702;23.200;2023-05-10T06:09:54;7.78;;;5.97;;
55467;SDS011;41332;42.702;23.200;2023-05-10T06:12:19;8.05;;;6.28;;
55467;SDS011;41332;42.702;23.200;2023-05-10T06:14:45;11.18;;;7.07;;
55467;SDS011;41332;42.702;23.200;2023-05-10T06:17:10;10.27;;;6.25;;
55467;SDS011;41332;42.702;23.200;2023-05-10T06:19:35;7.13;;;5.32;;
55467;SDS011;41332;42.702;23.200;2023-05-10T06:22:01;8.73;;;6.18;;
55467;SDS011;41332;42.702;23.200;2023-05-10T06:24:27;6.57;;;5.95;;
55467;SDS011;41332;42.702;23.200;2023-05-10T06:26:52;9.80;;;8.20;;
55467;SDS011;41332;42.702;23.200;2023-05-10T06:29:18;11.35;;;8.30;;
55467;SDS011;41332;42.702;23.200;2023-05-10T06:31:43;13.32;;;8.18;;
55467;SDS011;41332;42.702;23.200;2023-05-10T06:34:08;12.93;;;9.13;;
55467;SDS011;41332;42.702;23.200;2023-05-10T06:36:34;17.92;;;8.40;;
55467;SDS011;41332;42.702;23.200;2023-05-10T06:38:59;10.80;;;7.63;;
55467;SDS011;41332;42.702;23.200;2023-05-10T06:41:25;13.38;;;8.18;;
55467;SDS011;41332;42.702;23.200;2023-05-10T06:43:50;9.73;;;6.95;;
55467;SDS011;41332;42.702;23.200;2023-05-10T06:46:16;9.27;;;8.27;;
55467;SDS011;41332;42.702;23.200;2023-05-10T06:48:41;12.20;;;8.23;;
55467;SDS011;41332;42.702;23.200;2023-05-10T06:51:06;10.93;;;6.70;;
55467;SDS011;41332;42.702;23.200;2023-05-10T06:53:32;10.95;;;8.88;;
55467;SDS011;41332;42.702;23.200;2023-05-10T06:55:57;10.45;;;7.18;;
55467;SDS011;41332;42.702;23.200;2023-05-10T06:58:23;10.63;;;7.57;;
55467;SDS011;41332;42.702;23.200;2023-05-10T07:00:48;8.43;;;7.53;;
55467;SDS011;41332;42.702;23.200;2023-05-10T07:03:13;8.00;;;5.82;;
55467;SDS011;41332;42.702;23.200;2023-05-10T07:05:39;8.90;;;5.80;;
55467;SDS011;41332;42.702;23.200;2023-05-10T07:08:05;9.48;;;7.70;;
55467;SDS011;41332;42.702;23.200;2023-05-10T07:10:30;9.05;;;7.03;;
55467;SDS011;41332;42.702;23.200;2023-05-10T07:12:55;9.95;;;6.07;;
55467;SDS011;41332;42.702;23.200;2023-05-10T07:15:21;7.65;;;6.57;;
55467;SDS011;41332;42.702;23.200;2023-05-10T07:17:46;6.60;;;5.97;;
55467;SDS011;41332;42.702;23.200;2023-05-10T07:20:12;8.88;;;6.70;;
55467;SDS011;41332;42.702;23.200;2023-05-10T07:22:37;10.55;;;7.28;;
55467;SDS011;41332;42.702;23.200;2023-05-10T07:25:03;6.65;;;5.30;;
55467;SDS011;41332;42.702;23.200;2023-05-10T07:27:28;11.07;;;7.90;;
55467;SDS011;41332;42.702;23.200;2023-05-10T07:29:54;14.23;;;8.23;;
55467;SDS011;41332;42.702;23.200;2023-05-10T07:32:21;11.88;;;7.18;;
55467;SDS011;41332;42.702;23.200;2023-05-10T07:34:46;8.20;;;6.32;;
55467;SDS011;41332;42.702;23.200;2023-05-10T07:37:11;7.57;;;5.95;;
55467;SDS011;41332;42.702;23.200;2023-05-10T07:39:37;10.10;;;7.53;;
55467;SDS011;41332;42.702;23.200;2023-05-10T07:42:02;11.38;;;6.93;;
55467;SDS011;41332;42.702;23.200;2023-05-10T07:44:27;11.48;;;6.25;;
55467;SDS011;41332;42.702;23.200;2023-05-10T07:46:53;8.98;;;6.00;;
55467;SDS011;41332;42.702;23.200;2023-05-10T07:49:19;11.57;;;6.60;;
55467;SDS011;41332;42.702;23.200;2023-05-10T07:51:44;12.65;;;7.85;;
55467;SDS011;41332;42.702;23.200;2023-05-10T07:54:10;9.98;;;6.50;;
55467;SDS011;41332;42.702;23.200;2023-05-10T07:56:35;8.23;;;6.68;;
55467;SDS011;41332;42.702;23.200;2023-05-10T07:59:01;11.93;;;8.50;;
55467;SDS011;41332;42.702;23.200;2023-05-10T08:01:32;11.43;;;5.60;;
55467;SDS011;41332;42.702;23.200;2023-05-10T08:03:59;9.60;;;6.72;;
55467;SDS011;41332;42.702;23.200;2023-05-10T08:06:25;9.32;;;7.32;;
55467;SDS011;41332;42.702;23.200;2023-05-10T08:08:54;10.75;;;7.45;;
55467;SDS011;41332;42.702;23.200;2023-05-10T08:11:20;7.82;;;6.47;;
55467;SDS011;41332;42.702;23.200;2023-05-10T08:13:46;9.07;;;7.80;;
55467;SDS011;41332;42.702;23.200;2023-05-10T08:16:12;14.98;;;8.73;;
55467;SDS011;41332;42.702;23.200;2023-05-10T08:18:38;13.15;;;7.20;;
55467;SDS011;41332;42.702;23.200;2023-05-10T08:21:04;10.98;;;8.15;;
55467;SDS011;41332;42.702;23.200;2023-05-10T08:23:30;11.73;;;8.68;;
55467;SDS011;41332;42.702;23.200;2023-05-10T08:25:56;9.57;;;7.43;;
55467;SDS011;41332;42.702;23.200;2023-05-10T08:28:21;17.75;;;7.88;;
55467;SDS011;41332;42.702;23.200;2023-05-10T08:30:46;9.38;;;7.75;;
55467;SDS011;41332;42.702;23.200;2023-05-10T08:33:12;10.48;;;8.70;;
55467;SDS011;41332;42.702;23.200;2023-05-10T08:38:06;10.02;;;6.07;;
55467;SDS011;41332;42.702;23.200;2023-05-10T08:40:31;9.85;;;8.55;;
55467;SDS011;41332;42.702;23.200;2023-05-10T08:42:58;16.85;;;8.30;;
55467;SDS011;41332;42.702;23.200;2023-05-10T08:45:32;12.88;;;8.63;;
55467;SDS011;41332;42.702;23.200;2023-05-10T08:48:02;11.48;;;8.30;;
55467;SDS011;41332;42.702;23.200;2023-05-10T08:50:30;9.63;;;7.05;;
55467;SDS011;41332;42.702;23.200;2023-05-10T08:52:57;15.00;;;7.60;;
55467;SDS011;41332;42.702;23.200;2023-05-10T08:55:25;12.05;;;7.20;;
55467;SDS011;41332;42.702;23.200;2023-05-10T08:57:51;9.30;;;6.90;;
55467;SDS011;41332;42.702;23.200;2023-05-10T09:44:00;9.05;;;7.28;;
55467;SDS011;41332;42.702;23.200;2023-05-10T09:46:25;10.13;;;9.00;;
55467;SDS011;41332;42.702;23.200;2023-05-10T09:48:51;8.98;;;7.20;;
55467;SDS011;41332;42.702;23.200;2023-05-10T09:51:23;10.32;;;7.75;;
55467;SDS011;41332;42.702;23.200;2023-05-10T09:56:41;12.38;;;7.47;;
55467;SDS011;41332;42.702;23.200;2023-05-10T09:59:09;9.30;;;7.75;;
55467;SDS011;41332;42.702;23.200;2023-05-10T10:01:36;8.55;;;7.07;;
55467;SDS011;41332;42.702;23.200;2023-05-10T10:04:02;7.20;;;6.38;;
55467;SDS011;41332;42.702;23.200;2023-05-10T10:06:36;6.38;;;5.78;;
55467;SDS011;41332;42.702;23.200;2023-05-10T10:09:05;5.95;;;5.22;;
55467;SDS011;41332;42.702;23.200;2023-05-10T10:11:31;8.55;;;7.78;;
55467;SDS011;41332;42.702;23.200;2023-05-10T10:13:57;8.57;;;7.78;;
55467;SDS011;41332;42.702;23.200;2023-05-10T10:16:23;8.88;;;6.68;;
55467;SDS011;41332;42.702;23.200;2023-05-10T10:18:49;8.82;;;7.50;;
55467;SDS011;41332;42.702;23.200;2023-05-10T10:21:15;10.90;;;7.40;;
55467;SDS011;41332;42.702;23.200;2023-05-10T10:23:41;13.45;;;8.32;;
55467;SDS011;41332;42.702;23.200;2023-05-10T10:26:06;8.05;;;6.40;;
55467;SDS011;41332;42.702;23.200;2023-05-10T10:28:41;9.75;;;7.82;;
55467;SDS011;41332;42.702;23.200;2023-05-10T10:36:54;10.05;;;7.30;;
55467;SDS011;41332;42.702;23.200;2023-05-10T10:39:21;6.75;;;6.03;;
55467;SDS011;41332;42.702;23.200;2023-05-10T10:41:55;9.02;;;7.78;;
55467;SDS011;41332;42.702;23.200;2023-05-10T10:47:21;14.55;;;7.55;;
55467;SDS011;41332;42.702;23.200;2023-05-10T10:52:28;8.20;;;6.75;;
55467;SDS011;41332;42.702;23.200;2023-05-10T10:57:29;7.82;;;6.53;;
55467;SDS011;41332;42.702;23.200;2023-05-10T11:02:44;6.60;;;5.00;;
55467;SDS011;41332;42.702;23.200;2023-05-10T11:07:58;6.63;;;5.75;;
55467;SDS011;41332;42.702;23.200;2023-05-10T11:10:25;8.80;;;6.97;;
55467;SDS011;41332;42.702;23.200;2023-05-10T11:12:52;13.05;;;6.45;;
55467;SDS011;41332;42.702;23.200;2023-05-10T11:15:18;7.93;;;5.47;;
55467;SDS011;41332;42.702;23.200;2023-05-10T11:17:44;7.05;;;6.35;;
55467;SDS011;41332;42.702;23.200;2023-05-10T11:20:13;12.13;;;7.53;;
55467;SDS011;41332;42.702;23.200;2023-05-10T11:22:52;8.18;;;6.93;;
55467;SDS011;41332;42.702;23.200;2023-05-10T11:25:19;9.50;;;6.20;;
55467;SDS011;41332;42.702;23.200;2023-05-10T11:27:46;9.23;;;6.97;;
55467;SDS011;41332;42.702;23.200;2023-05-10T11:30:13;7.82;;;7.03;;
55467;SDS011;41332;42.702;23.200;2023-05-10T11:32:40;8.73;;;6.97;;
55467;SDS011;41332;42.702;23.200;2023-05-10T11:35:09;10.20;;;7.47;;
55467;SDS011;41332;42.702;23.200;2023-05-10T11:37:35;9.40;;;5.88;;
55467;SDS011;41332;42.702;23.200;2023-05-10T11:40:03;8.63;;;7.30;;
55467;SDS011;41332;42.702;23.200;2023-05-10T11:42:28;8.38;;;7.28;;
55467;SDS011;41332;42.702;23.200;2023-05-10T11:44:55;6.70;;;5.28;;
55467;SDS011;41332;42.702;23.200;2023-05-10T11:47:20;10.45;;;6.72;;
55467;SDS011;41332;42.702;23.200;2023-05-10T11:49:47;9.35;;;6.13;;
55467;SDS011;41332;42.702;23.200;2023-05-10T11:52:13;8.20;;;6.40;;
55467;SDS011;41332;42.702;23.200;2023-05-10T11:54:59;6.25;;;5.45;;
55467;SDS011;41332;42.702;23.200;2023-05-10T11:57:25;6.30;;;5.70;;
55467;SDS011;41332;42.702;23.200;2023-05-10T11:59:56;5.60;;;5.07;;
55467;SDS011;41332;42.702;23.200;2023-05-10T12:02:22;6.40;;;5.75;;
55467;SDS011;41332;42.702;23.200;2023-05-10T12:04:48;13.30;;;6.35;;
55467;SDS011;41332;42.702;23.200;2023-05-10T12:07:14;8.07;;;6.45;;
55467;SDS011;41332;42.702;23.200;2023-05-10T12:09:43;8.18;;;5.57;;
55467;SDS011;41332;42.702;23.200;2023-05-10T12:12:10;14.73;;;7.20;;
55467;SDS011;41332;42.702;23.200;2023-05-10T12:14:40;15.27;;;6.68;;
55467;SDS011;41332;42.702;23.200;2023-05-10T12:17:06;11.38;;;7.80;;
55467;SDS011;41332;42.702;23.200;2023-05-10T12:19:38;10.05;;;5.97;;
55467;SDS011;41332;42.702;23.200;2023-05-10T12:22:04;6.68;;;6.05;;
55467;SDS011;41332;42.702;23.200;2023-05-10T12:24:30;11.55;;;7.60;;
55467;SDS011;41332;42.702;23.200;2023-05-10T12:26:56;10.95;;;6.72;;
55467;SDS011;41332;42.702;23.200;2023-05-10T12:29:21;9.30;;;7.07;;
55467;SDS011;41332;42.702;23.200;2023-05-10T12:31:57;7.78;;;5.80;;
55467;SDS011;41332;42.702;23.200;2023-05-10T12:34:29;7.95;;;6.10;;
55467;SDS011;41332;42.702;23.200;2023-05-10T12:36:56;8.88;;;8.07;;
55467;SDS011;41332;42.702;23.200;2023-05-10T12:39:23;10.45;;;7.53;;
55467;SDS011;41332;42.702;23.200;2023-05-10T12:41:50;8.18;;;6.55;;
55467;SDS011;41332;42.702;23.200;2023-05-10T12:44:16;9.50;;;7.35;;
55467;SDS011;41332;42.702;23.200;2023-05-10T12:46:42;7.57;;;6.30;;
55467;SDS011;41332;42.702;23.200;2023-05-10T12:49:07;9.70;;;7.85;;
55467;SDS011;41332;42.702;23.200;2023-05-10T12:51:32;8.48;;;6.38;;
55467;SDS011;41332;42.702;23.200;2023-05-10T12:53:58;10.70;;;7.97;;
55467;SDS011;41332;42.702;23.200;2023-05-10T12:56:23;9.68;;;7.53;;
55467;SDS011;41332;42.702;23.200;2023-05-10T12:58:49;11.18;;;6.80;;
55467;SDS011;41332;42.702;23.200;2023-05-10T13:01:17;17.98;;;12.93;;
55467;SDS011;41332;42.702;23.200;2023-05-10T13:03:42;10.68;;;8.48;;
55467;SDS011;41332;42.702;23.200;2023-05-10T13:06:08;11.57;;;6.50;;
55467;SDS011;41332;42.702;23.200;2023-05-10T13:08:33;8.07;;;7.25;;
55467;SDS011;41332;42.702;23.200;2023-05-10T13:10:59;13.75;;;8.32;;
55467;SDS011;41332;42.702;23.200;2023-05-10T13:13:25;8.57;;;7.55;;
55467;SDS011;41332;42.702;23.200;2023-05-10T13:15:51;14.02;;;7.38;;
55467;SDS011;41332;42.702;23.200;2023-05-10T13:18:16;10.98;;;7.20;;
55467;SDS011;41332;42.702;23.200;2023-05-10T13:20:42;10.20;;;8.10;;
55467;SDS011;41332;42.702;23.200;2023-05-10T13:23:09;17.77;;;8.33;;
55467;SDS011;41332;42.702;23.200;2023-05-10T13:25:34;11.40;;;7.20;;
55467;SDS011;41332;42.702;23.200;2023-05-10T13:28:00;9.75;;;6.40;;
55467;SDS011;41332;42.702;23.200;2023-05-10T13:30:26;12.07;;;5.85;;
55467;SDS011;41332;42.702;23.200;2023-05-10T13:32:51;14.20;;;7.97;;
55467;SDS011;41332;42.702;23.200;2023-05-10T13:35:17;8.20;;;6.53;;
55467;SDS011;41332;42.702;23.200;2023-05-10T13:37:42;11.15;;;7.88;;
55467;SDS011;41332;42.702;23.200;2023-05-10T13:40:08;9.77;;;7.82;;
55467;SDS011;41332;42.702;23.200;2023-05-10T13:42:33;12.60;;;7.13;;
55467;SDS011;41332;42.702;23.200;2023-05-10T13:44:59;10.77;;;6.63;;
55467;SDS011;41332;42.702;23.200;2023-05-10T13:49:52;7.30;;;6.28;;
55467;SDS011;41332;42.702;23.200;2023-05-10T13:52:17;10.30;;;6.97;;
55467;SDS011;41332;42.702;23.200;2023-05-10T13:54:43;11.93;;;7.30;;
55467;SDS011;41332;42.702;23.200;2023-05-10T13:57:08;8.88;;;6.28;;
55467;SDS011;41332;42.702;23.200;2023-05-10T13:59:34;8.52;;;5.97;;
55467;SDS011;41332;42.702;23.200;2023-05-10T14:01:59;11.23;;;7.45;;
55467;SDS011;41332;42.702;23.200;2023-05-10T14:04:27;7.30;;;5.82;;
55467;SDS011;41332;42.702;23.200;2023-05-10T14:06:53;11.50;;;6.65;;
55467;SDS011;41332;42.702;23.200;2023-05-10T14:09:18;10.95;;;8.00;;
55467;SDS011;41332;42.702;23.200;2023-05-10T14:11:44;9.52;;;6.75;;
55467;SDS011;41332;42.702;23.200;2023-05-10T14:14:10;6.85;;;5.90;;
55467;SDS011;41332;42.702;23.200;2023-05-10T14:16:36;11.40;;;6.82;;
55467;SDS011;41332;42.702;23.200;2023-05-10T14:19:01;7.13;;;5.47;;
55467;SDS011;41332;42.702;23.200;2023-05-10T14:21:27;11.60;;;7.25;;
55467;SDS011;41332;42.702;23.200;2023-05-10T14:23:54;14.50;;;6.73;;
55467;SDS011;41332;42.702;23.200;2023-05-10T14:26:20;9.30;;;7.05;;
55467;SDS011;41332;42.702;23.200;2023-05-10T14:28:46;7.50;;;6.50;;
55467;SDS011;41332;42.702;23.200;2023-05-10T14:31:12;8.63;;;7.03;;
55467;SDS011;41332;42.702;23.200;2023-05-10T14:33:37;10.20;;;8.75;;
55467;SDS011;41332;42.702;23.200;2023-05-10T14:36:02;10.00;;;7.38;;
55467;SDS011;41332;42.702;23.200;2023-05-10T14:38:28;7.78;;;5.78;;
55467;SDS011;41332;42.702;23.200;2023-05-10T14:40:54;8.07;;;6.63;;
55467;SDS011;41332;42.702;23.200;2023-05-10T14:43:20;7.63;;;6.05;;
55467;SDS011;41332;42.702;23.200;2023-05-10T14:45:45;10.18;;;6.70;;
55467;SDS011;41332;42.702;23.200;2023-05-10T14:48:11;5.93;;;5.25;;
55467;SDS011;41332;42.702;23.200;2023-05-10T14:50:40;8.38;;;7.00;;
55467;SDS011;41332;42.702;23.200;2023-05-10T14:55:59;8.48;;;5.75;;
55467;SDS011;41332;42.702;23.200;2023-05-10T14:58:26;9.07;;;6.35;;
55467;SDS011;41332;42.702;23.200;2023-05-10T15:00:52;8.60;;;6.93;;
55467;SDS011;41332;42.702;23.200;2023-05-10T15:03:17;10.55;;;7.28;;
55467;SDS011;41332;42.702;23.200;2023-05-10T15:05:43;9.18;;;7.38;;
55467;SDS011;41332;42.702;23.200;2023-05-10T15:08:08;14.15;;;7.35;;
55467;SDS011;41332;42.702;23.200;2023-05-10T15:10:34;9.90;;;6.90;;
55467;SDS011;41332;42.702;23.200;2023-05-10T15:13:01;9.52;;;6.90;;
55467;SDS011;41332;42.702;23.200;2023-05-10T15:15:28;9.98;;;7.35;;
55467;SDS011;41332;42.702;23.200;2023-05-10T15:17:53;7.15;;;6.45;;
55467;SDS011;41332;42.702;23.200;2023-05-10T15:20:19;6.57;;;5.30;;
55467;SDS011;41332;42.702;23.200;2023-05-10T15:22:44;9.57;;;6.80;;
55467;SDS011;41332;42.702;23.200;2023-05-10T15:25:09;8.70;;;7.65;;
55467;SDS011;41332;42.702;23.200;2023-05-10T15:27:35;9.55;;;6.80;;
55467;SDS011;41332;42.702;23.200;2023-05-10T15:30:00;7.93;;;7.07;;
55467;SDS011;41332;42.702;23.200;2023-05-10T15:32:26;6.28;;;5.63;;
55467;SDS011;41332;42.702;23.200;2023-05-10T15:34:51;7.88;;;6.40;;
55467;SDS011;41332;42.702;23.200;2023-05-10T15:37:17;8.68;;;6.53;;
55467;SDS011;41332;42.702;23.200;2023-05-10T15:39:43;7.55;;;5.85;;
55467;SDS011;41332;42.702;23.200;2023-05-10T15:42:09;9.63;;;6.78;;
55467;SDS011;41332;42.702;23.200;2023-05-10T15:44:34;8.68;;;6.80;;
55467;SDS011;41332;42.702;23.200;2023-05-10T15:47:00;7.35;;;6.22;;
55467;SDS011;41332;42.702;23.200;2023-05-10T15:49:27;9.73;;;7.18;;
55467;SDS011;41332;42.702;23.200;2023-05-10T15:51:53;11.48;;;8.27;;
55467;SDS011;41332;42.702;23.200;2023-05-10T15:54:18;8.90;;;7.15;;
55467;SDS011;41332;42.702;23.200;2023-05-10T15:56:43;9.05;;;8.15;;
55467;SDS011;41332;42.702;23.200;2023-05-10T15:59:09;7.97;;;6.57;;
55467;SDS011;41332;42.702;23.200;2023-05-10T16:01:35;9.63;;;7.13;;
55467;SDS011;41332;42.702;23.200;2023-05-10T16:04:01;9.75;;;7.13;;